sensor_id;sensor_type;location;lat;lon;timestamp;pressure;altitude;pressure_sealevel;temperature;humidity
29385;BME280;16367;48.736;9.218;2023-01-26T00:00:08;-23189.00;;;0.65;100.00
29385;BME280;16367;48.736;9.218;2023-01-26T00:02:12;-23188.66;;;0.64;100.00
29385;BME280;16367;48.736;9.218;2023-01-26T00:04:15;-23180.38;;;0.38;100.00
29385;BME280;16367;48.736;9.218;2023-01-26T00:06:19;-23177.31;;;0.29;100.00
29385;BME280;16367;48.736;9.218;2023-01-26T00:08:23;-23184.03;;;0.50;100.00
29385;BME280;16367;48.736;9.218;2023-01-26T00:10:26;-23186.28;;;0.57;100.00
29385;BME280;16367;48.736;9.218;2023-01-26T00:12:28;-23181.31;;;0.41;100.00
29385;BME280;16367;48.736;9.218;2023-01-26T00:14:31;-23179.09;;;0.34;100.00
29385;BME280;16367;48.736;9.218;2023-01-26T00:16:50;-23177.16;;;0.28;100.00
29385;BME280;16367;48.736;9.218;2023-01-26T00:18:54;-23183.88;;;0.49;100.00
29385;BME280;16367;48.736;9.218;2023-01-26T00:20:58;-23179.41;;;0.35;100.00
29385;BME280;16367;48.736;9.218;2023-01-26T00:23:01;-23182.59;;;0.45;100.00
29385;BME280;16367;48.736;9.218;2023-01-26T00:25:06;-23179.88;;;0.37;100.00
29385;BME280;16367;48.736;9.218;2023-01-26T00:27:08;-23185.97;;;0.56;100.00
29385;BME280;16367;48.736;9.218;2023-01-26T00:29:11;-23182.75;;;0.46;100.00
29385;BME280;16367;48.736;9.218;2023-01-26T00:31:15;-23186.59;;;0.58;100.00
29385;BME280;16367;48.736;9.218;2023-01-26T00:33:18;-23182.44;;;0.45;100.00
29385;BME280;16367;48.736;9.218;2023-01-26T00:35:21;-23176.22;;;0.25;100.00
29385;BME280;16367;48.736;9.218;2023-01-26T00:37:24;-23178.44;;;0.32;100.00
29385;BME280;16367;48.736;9.218;2023-01-26T00:39:26;-23179.72;;;0.36;100.00
29385;BME280;16367;48.736;9.218;2023-01-26T00:41:30;-23174.47;;;0.20;100.00
29385;BME280;16367;48.736;9.218;2023-01-26T00:43:50;-23178.75;;;0.33;100.00
29385;BME280;16367;48.736;9.218;2023-01-26T00:45:53;-23174.63;;;0.20;100.00
29385;BME280;16367;48.736;9.218;2023-01-26T00:47:56;-23171.72;;;0.11;100.00
29385;BME280;16367;48.736;9.218;2023-01-26T00:50:00;-23171.59;;;0.11;100.00
29385;BME280;16367;48.736;9.218;2023-01-26T00:52:03;-23172.84;;;0.15;100.00
29385;BME280;16367;48.736;9.218;2023-01-26T00:54:06;-23170.47;;;0.07;100.00
29385;BME280;16367;48.736;9.218;2023-01-26T00:56:09;-23167.59;;;-0.02;100.00
29385;BME280;16367;48.736;9.218;2023-01-26T00:58:13;-23171.09;;;0.09;100.00
29385;BME280;16367;48.736;9.218;2023-01-26T01:00:16;-23167.25;;;-0.03;100.00
29385;BME280;16367;48.736;9.218;2023-01-26T01:02:20;-23168.06;;;-0.01;100.00
29385;BME280;16367;48.736;9.218;2023-01-26T01:04:23;-23169.81;;;0.05;100.00
29385;BME280;16367;48.736;9.218;2023-01-26T01:06:25;-23176.38;;;0.26;100.00
29385;BME280;16367;48.736;9.218;2023-01-26T01:08:28;-23167.59;;;-0.02;100.00
29385;BME280;16367;48.736;9.218;2023-01-26T01:10:31;-23172.69;;;0.14;100.00
29385;BME280;16367;48.736;9.218;2023-01-26T01:12:34;-23176.22;;;0.25;100.00
29385;BME280;16367;48.736;9.218;2023-01-26T01:14:38;-23180.69;;;0.39;100.00
29385;BME280;16367;48.736;9.218;2023-01-26T01:16:41;-23184.53;;;0.51;100.00
29385;BME280;16367;48.736;9.218;2023-01-26T01:18:44;-23177.97;;;0.31;100.00
29385;BME280;16367;48.736;9.218;2023-01-26T01:20:47;-23170.16;;;0.06;100.00
29385;BME280;16367;48.736;9.218;2023-01-26T01:22:50;-23167.75;;;-0.02;100.00
29385;BME280;16367;48.736;9.218;2023-01-26T01:24:52;-23170.63;;;0.08;100.00
29385;BME280;16367;48.736;9.218;2023-01-26T01:26:55;-23173.97;;;0.18;100.00
29385;BME280;16367;48.736;9.218;2023-01-26T01:28:58;-23176.22;;;0.25;100.00
29385;BME280;16367;48.736;9.218;2023-01-26T01:31:04;-23180.69;;;0.39;100.00
29385;BME280;16367;48.736;9.218;2023-01-26T01:33:07;-23179.09;;;0.34;100.00
29385;BME280;16367;48.736;9.218;2023-01-26T01:35:09;-23177.50;;;0.29;100.00
29385;BME280;16367;48.736;9.218;2023-01-26T01:37:12;-23179.09;;;0.34;100.00
29385;BME280;16367;48.736;9.218;2023-01-26T01:39:15;-23177.16;;;0.28;100.00
29385;BME280;16367;48.736;9.218;2023-01-26T01:41:20;-23178.13;;;0.31;100.00
29385;BME280;16367;48.736;9.218;2023-01-26T01:43:25;-23179.09;;;0.34;100.00
29385;BME280;16367;48.736;9.218;2023-01-26T01:45:42;-23174.94;;;0.21;100.00
29385;BME280;16367;48.736;9.218;2023-01-26T01:47:46;-23174.28;;;0.19;100.00
29385;BME280;16367;48.736;9.218;2023-01-26T01:49:49;-23175.56;;;0.23;100.00
29385;BME280;16367;48.736;9.218;2023-01-26T01:51:56;-23176.22;;;0.25;100.00
29385;BME280;16367;48.736;9.218;2023-01-26T01:54:06;-23171.72;;;0.11;100.00
29385;BME280;16367;48.736;9.218;2023-01-26T01:56:13;-23179.72;;;0.36;100.00
29385;BME280;16367;48.736;9.218;2023-01-26T01:58:19;-23167.91;;;-0.01;100.00
29385;BME280;16367;48.736;9.218;2023-01-26T02:00:23;-23177.81;;;0.30;100.00
29385;BME280;16367;48.736;9.218;2023-01-26T02:02:26;-23182.44;;;0.45;100.00
29385;BME280;16367;48.736;9.218;2023-01-26T02:04:30;-23170.94;;;0.09;100.00
29385;BME280;16367;48.736;9.218;2023-01-26T02:06:35;-23170.16;;;0.06;100.00
29385;BME280;16367;48.736;9.218;2023-01-26T02:08:43;-23174.63;;;0.20;100.00
29385;BME280;16367;48.736;9.218;2023-01-26T02:10:48;-23168.22;;;0.00;100.00
29385;BME280;16367;48.736;9.218;2023-01-26T02:12:54;-23165.03;;;-0.10;100.00
29385;BME280;16367;48.736;9.218;2023-01-26T02:14:57;-23162.47;;;-0.18;100.00
29385;BME280;16367;48.736;9.218;2023-01-26T02:17:00;-23165.03;;;-0.10;100.00
29385;BME280;16367;48.736;9.218;2023-01-26T02:19:03;-23163.75;;;-0.14;100.00
29385;BME280;16367;48.736;9.218;2023-01-26T02:21:09;-23164.38;;;-0.12;100.00
29385;BME280;16367;48.736;9.218;2023-01-26T02:23:23;-23168.88;;;0.02;100.00
29385;BME280;16367;48.736;9.218;2023-01-26T02:25:34;-23168.88;;;0.02;100.00
29385;BME280;16367;48.736;9.218;2023-01-26T02:27:40;-23174.78;;;0.21;100.00
29385;BME280;16367;48.736;9.218;2023-01-26T02:29:43;-23172.06;;;0.12;100.00
29385;BME280;16367;48.736;9.218;2023-01-26T02:31:47;-23169.19;;;0.03;100.00
29385;BME280;16367;48.736;9.218;2023-01-26T02:33:50;-23166.78;;;-0.05;100.00
29385;BME280;16367;48.736;9.218;2023-01-26T02:35:52;-23166.00;;;-0.07;100.00
29385;BME280;16367;48.736;9.218;2023-01-26T02:37:55;-23168.38;;;0.00;100.00
29385;BME280;16367;48.736;9.218;2023-01-26T02:40:02;-23171.41;;;0.10;100.00
29385;BME280;16367;48.736;9.218;2023-01-26T02:42:06;-23170.16;;;0.06;100.00
29385;BME280;16367;48.736;9.218;2023-01-26T02:44:28;-23169.81;;;0.05;100.00
29385;BME280;16367;48.736;9.218;2023-01-26T02:46:31;-23164.06;;;-0.13;100.00
29385;BME280;16367;48.736;9.218;2023-01-26T02:48:34;-23169.19;;;0.03;100.00
29385;BME280;16367;48.736;9.218;2023-01-26T02:50:54;-23166.00;;;-0.07;100.00
29385;BME280;16367;48.736;9.218;2023-01-26T02:52:57;-23167.25;;;-0.03;100.00
29385;BME280;16367;48.736;9.218;2023-01-26T02:55:00;-23170.63;;;0.08;100.00
29385;BME280;16367;48.736;9.218;2023-01-26T02:57:20;-23162.78;;;-0.17;100.00
29385;BME280;16367;48.736;9.218;2023-01-26T02:59:23;-23163.91;;;-0.14;100.00
29385;BME280;16367;48.736;9.218;2023-01-26T03:01:27;-23171.09;;;0.09;100.00
29385;BME280;16367;48.736;9.218;2023-01-26T03:03:32;-23167.44;;;-0.03;100.00
29385;BME280;16367;48.736;9.218;2023-01-26T03:05:42;-23162.78;;;-0.17;100.00
29385;BME280;16367;48.736;9.218;2023-01-26T03:07:45;-23166.31;;;-0.06;100.00
29385;BME280;16367;48.736;9.218;2023-01-26T03:09:48;-23170.16;;;0.06;100.00
29385;BME280;16367;48.736;9.218;2023-01-26T03:11:50;-23161.50;;;-0.21;100.00
29385;BME280;16367;48.736;9.218;2023-01-26T03:13:53;-23155.75;;;-0.39;100.00
29385;BME280;16367;48.736;9.218;2023-01-26T03:15:56;-23162.47;;;-0.18;100.00
29385;BME280;16367;48.736;9.218;2023-01-26T03:18:06;-23154.97;;;-0.42;100.00
29385;BME280;16367;48.736;9.218;2023-01-26T03:20:44;-23157.34;;;-0.34;100.00
29385;BME280;16367;48.736;9.218;2023-01-26T03:23:07;-23157.03;;;-0.35;100.00
29385;BME280;16367;48.736;9.218;2023-01-26T03:25:39;-23162.78;;;-0.17;100.00
29385;BME280;16367;48.736;9.218;2023-01-26T03:27:59;-23165.03;;;-0.10;100.00
29385;BME280;16367;48.736;9.218;2023-01-26T03:30:02;-23168.88;;;0.02;100.00
29385;BME280;16367;48.736;9.218;2023-01-26T03:32:05;-23161.03;;;-0.23;100.00
29385;BME280;16367;48.736;9.218;2023-01-26T03:34:09;-23165.03;;;-0.10;100.00
29385;BME280;16367;48.736;9.218;2023-01-26T03:36:11;-23163.44;;;-0.15;100.00
29385;BME280;16367;48.736;9.218;2023-01-26T03:38:14;-23163.75;;;-0.14;100.00
29385;BME280;16367;48.736;9.218;2023-01-26T03:40:17;-23163.59;;;-0.15;100.00
29385;BME280;16367;48.736;9.218;2023-01-26T03:42:37;-23162.94;;;-0.17;100.00
29385;BME280;16367;48.736;9.218;2023-01-26T03:44:58;-23167.75;;;-0.02;100.00
29385;BME280;16367;48.736;9.218;2023-01-26T03:47:18;-23170.78;;;0.08;100.00
29385;BME280;16367;48.736;9.218;2023-01-26T03:49:40;-23172.06;;;0.12;100.00
29385;BME280;16367;48.736;9.218;2023-01-26T03:52:00;-23166.31;;;-0.06;100.00
29385;BME280;16367;48.736;9.218;2023-01-26T03:54:21;-23163.09;;;-0.16;100.00
29385;BME280;16367;48.736;9.218;2023-01-26T03:56:41;-23162.31;;;-0.19;100.00
29385;BME280;16367;48.736;9.218;2023-01-26T03:58:45;-23163.75;;;-0.14;100.00
29385;BME280;16367;48.736;9.218;2023-01-26T04:00:48;-23166.31;;;-0.06;100.00
29385;BME280;16367;48.736;9.218;2023-01-26T04:02:51;-23162.47;;;-0.18;100.00
29385;BME280;16367;48.736;9.218;2023-01-26T04:05:13;-23167.25;;;-0.03;100.00
29385;BME280;16367;48.736;9.218;2023-01-26T04:07:33;-23167.25;;;-0.03;100.00
29385;BME280;16367;48.736;9.218;2023-01-26T04:09:53;-23155.28;;;-0.41;100.00
29385;BME280;16367;48.736;9.218;2023-01-26T04:11:56;-23151.44;;;-0.53;100.00
29385;BME280;16367;48.736;9.218;2023-01-26T04:13:59;-23158.63;;;-0.30;100.00
29385;BME280;16367;48.736;9.218;2023-01-26T04:16:19;-23156.72;;;-0.36;100.00
29385;BME280;16367;48.736;9.218;2023-01-26T04:18:39;-23159.91;;;-0.26;100.00
29385;BME280;16367;48.736;9.218;2023-01-26T04:21:02;-23156.06;;;-0.38;100.00
29385;BME280;16367;48.736;9.218;2023-01-26T04:23:23;-23156.72;;;-0.36;100.00
29385;BME280;16367;48.736;9.218;2023-01-26T04:25:25;-23160.56;;;-0.24;100.00
29385;BME280;16367;48.736;9.218;2023-01-26T04:27:28;-23157.69;;;-0.33;100.00
29385;BME280;16367;48.736;9.218;2023-01-26T04:29:35;-23159.91;;;-0.26;100.00
29385;BME280;16367;48.736;9.218;2023-01-26T04:31:38;-23161.50;;;-0.21;100.00
29385;BME280;16367;48.736;9.218;2023-01-26T04:33:41;-23159.44;;;-0.28;100.00
29385;BME280;16367;48.736;9.218;2023-01-26T04:35:44;-23156.25;;;-0.38;100.00
29385;BME280;16367;48.736;9.218;2023-01-26T04:37:48;-23152.88;;;-0.48;100.00
29385;BME280;16367;48.736;9.218;2023-01-26T04:39:51;-23155.44;;;-0.40;100.00
29385;BME280;16367;48.736;9.218;2023-01-26T04:41:53;-23153.69;;;-0.46;100.00
29385;BME280;16367;48.736;9.218;2023-01-26T04:43:56;-23157.03;;;-0.35;100.00
29385;BME280;16367;48.736;9.218;2023-01-26T04:46:00;-23154.16;;;-0.44;100.00
29385;BME280;16367;48.736;9.218;2023-01-26T04:48:04;-23150.97;;;-0.54;100.00
29385;BME280;16367;48.736;9.218;2023-01-26T04:50:08;-23152.88;;;-0.48;100.00
29385;BME280;16367;48.736;9.218;2023-01-26T04:52:11;-23151.59;;;-0.52;100.00
29385;BME280;16367;48.736;9.218;2023-01-26T04:54:16;-23153.03;;;-0.48;100.00
29385;BME280;16367;48.736;9.218;2023-01-26T04:56:21;-23151.91;;;-0.51;100.00
29385;BME280;16367;48.736;9.218;2023-01-26T04:58:24;-23151.75;;;-0.52;100.00
29385;BME280;16367;48.736;9.218;2023-01-26T05:00:27;-23152.41;;;-0.50;100.00
29385;BME280;16367;48.736;9.218;2023-01-26T05:02:33;-23152.25;;;-0.50;100.00
29385;BME280;16367;48.736;9.218;2023-01-26T05:04:35;-23147.75;;;-0.64;100.00
29385;BME280;16367;48.736;9.218;2023-01-26T05:06:38;-23148.09;;;-0.63;100.00
29385;BME280;16367;48.736;9.218;2023-01-26T05:08:42;-23150.66;;;-0.55;100.00
29385;BME280;16367;48.736;9.218;2023-01-26T05:10:47;-23149.22;;;-0.60;100.00
29385;BME280;16367;48.736;9.218;2023-01-26T05:12:49;-23148.72;;;-0.61;100.00
29385;BME280;16367;48.736;9.218;2023-01-26T05:14:52;-23148.41;;;-0.62;100.00
29385;BME280;16367;48.736;9.218;2023-01-26T05:16:55;-23154.00;;;-0.45;100.00
29385;BME280;16367;48.736;9.218;2023-01-26T05:18:57;-23144.88;;;-0.73;100.00
29385;BME280;16367;48.736;9.218;2023-01-26T05:21:00;-23147.28;;;-0.66;100.00
29385;BME280;16367;48.736;9.218;2023-01-26T05:23:03;-23151.28;;;-0.53;100.00
29385;BME280;16367;48.736;9.218;2023-01-26T05:25:06;-23152.56;;;-0.49;100.00
29385;BME280;16367;48.736;9.218;2023-01-26T05:27:10;-23150.47;;;-0.56;100.00
29385;BME280;16367;48.736;9.218;2023-01-26T05:29:25;-23145.69;;;-0.71;100.00
29385;BME280;16367;48.736;9.218;2023-01-26T05:31:27;-23144.56;;;-0.75;100.00
29385;BME280;16367;48.736;9.218;2023-01-26T05:33:30;-23145.22;;;-0.72;100.00
29385;BME280;16367;48.736;9.218;2023-01-26T05:35:33;-23139.13;;;-0.92;100.00
29385;BME280;16367;48.736;9.218;2023-01-26T05:37:36;-23143.13;;;-0.79;100.00
29385;BME280;16367;48.736;9.218;2023-01-26T05:39:38;-23143.28;;;-0.79;100.00
29385;BME280;16367;48.736;9.218;2023-01-26T05:41:41;-23139.94;;;-0.89;100.00
29385;BME280;16367;48.736;9.218;2023-01-26T05:43:45;-22629.25;;;-0.73;100.00
29385;BME280;16367;48.736;9.218;2023-01-26T05:45:48;-21937.34;;;-0.64;100.00
29385;BME280;16367;48.736;9.218;2023-01-26T05:47:50;-22478.03;;;-0.83;100.00
29385;BME280;16367;48.736;9.218;2023-01-26T05:49:53;-21938.91;;;-0.84;100.00
29385;BME280;16367;48.736;9.218;2023-01-26T05:51:56;-19961.91;;;-0.83;100.00
29385;BME280;16367;48.736;9.218;2023-01-26T05:53:59;-18728.94;;;-0.68;100.00
29385;BME280;16367;48.736;9.218;2023-01-26T05:56:02;-23139.44;;;-0.91;100.00
29385;BME280;16367;48.736;9.218;2023-01-26T05:58:04;-22904.19;;;-0.87;100.00
29385;BME280;16367;48.736;9.218;2023-01-26T06:00:10;-23138.34;;;-0.94;100.00
29385;BME280;16367;48.736;9.218;2023-01-26T06:02:14;-23137.84;;;-0.96;100.00
29385;BME280;16367;48.736;9.218;2023-01-26T06:04:16;-23137.38;;;-0.97;100.00
29385;BME280;16367;48.736;9.218;2023-01-26T06:06:19;-23137.38;;;-0.97;100.00
29385;BME280;16367;48.736;9.218;2023-01-26T06:08:22;-23139.44;;;-0.91;100.00
29385;BME280;16367;48.736;9.218;2023-01-26T06:10:25;-23145.06;;;-0.73;100.00
29385;BME280;16367;48.736;9.218;2023-01-26T06:12:27;-23143.13;;;-0.79;100.00
29385;BME280;16367;48.736;9.218;2023-01-26T06:14:32;-23147.59;;;-0.65;100.00
29385;BME280;16367;48.736;9.218;2023-01-26T06:16:35;-23144.25;;;-0.76;100.00
29385;BME280;16367;48.736;9.218;2023-01-26T06:18:38;-23141.84;;;-0.83;100.00
29385;BME280;16367;48.736;9.218;2023-01-26T06:20:41;-23144.25;;;-0.76;100.00
29385;BME280;16367;48.736;9.218;2023-01-26T06:22:44;-23141.38;;;-0.85;100.00
29385;BME280;16367;48.736;9.218;2023-01-26T06:24:47;-23139.78;;;-0.90;100.00
29385;BME280;16367;48.736;9.218;2023-01-26T06:26:50;-23141.38;;;-0.85;100.00
29385;BME280;16367;48.736;9.218;2023-01-26T06:28:52;-23141.69;;;-0.84;100.00
29385;BME280;16367;48.736;9.218;2023-01-26T06:30:58;-23141.22;;;-0.85;100.00
29385;BME280;16367;48.736;9.218;2023-01-26T06:33:02;-23140.72;;;-0.87;100.00
29385;BME280;16367;48.736;9.218;2023-01-26T06:35:07;-23138.81;;;-0.93;100.00
29385;BME280;16367;48.736;9.218;2023-01-26T06:37:10;-23141.69;;;-0.84;100.00
29385;BME280;16367;48.736;9.218;2023-01-26T06:39:14;-23142.66;;;-0.81;100.00
29385;BME280;16367;48.736;9.218;2023-01-26T06:41:17;-23132.91;;;-1.11;100.00
29385;BME280;16367;48.736;9.218;2023-01-26T06:43:20;-23138.50;;;-0.94;100.00
29385;BME280;16367;48.736;9.218;2023-01-26T06:45:23;-23142.81;;;-0.80;100.00
29385;BME280;16367;48.736;9.218;2023-01-26T06:47:25;-23141.38;;;-0.85;100.00
29385;BME280;16367;48.736;9.218;2023-01-26T06:49:29;-23143.59;;;-0.78;100.00
29385;BME280;16367;48.736;9.218;2023-01-26T06:51:43;-23138.00;;;-0.95;100.00
29385;BME280;16367;48.736;9.218;2023-01-26T06:53:50;-23141.22;;;-0.85;100.00
29385;BME280;16367;48.736;9.218;2023-01-26T06:55:53;-23138.50;;;-0.94;100.00
29385;BME280;16367;48.736;9.218;2023-01-26T06:57:56;-23134.97;;;-1.05;100.00
29385;BME280;16367;48.736;9.218;2023-01-26T06:59:58;-23137.84;;;-0.96;100.00
29385;BME280;16367;48.736;9.218;2023-01-26T07:02:01;-23137.84;;;-0.96;100.00
29385;BME280;16367;48.736;9.218;2023-01-26T07:04:04;-23141.53;;;-0.84;100.00
29385;BME280;16367;48.736;9.218;2023-01-26T07:06:08;-23142.34;;;-0.82;100.00
29385;BME280;16367;48.736;9.218;2023-01-26T07:08:12;-23137.06;;;-0.98;100.00
29385;BME280;16367;48.736;9.218;2023-01-26T07:10:15;-23135.94;;;-1.02;100.00
29385;BME280;16367;48.736;9.218;2023-01-26T07:12:17;-23138.50;;;-0.94;100.00
29385;BME280;16367;48.736;9.218;2023-01-26T07:14:20;-23141.38;;;-0.85;100.00
29385;BME280;16367;48.736;9.218;2023-01-26T07:16:23;-23136.88;;;-0.99;100.00
29385;BME280;16367;48.736;9.218;2023-01-26T07:18:26;-23133.38;;;-1.10;100.00
29385;BME280;16367;48.736;9.218;2023-01-26T07:20:29;-23132.91;;;-1.11;100.00
29385;BME280;16367;48.736;9.218;2023-01-26T07:22:33;-23131.13;;;-1.17;100.00
29385;BME280;16367;48.736;9.218;2023-01-26T07:24:35;-23136.25;;;-1.01;100.00
29385;BME280;16367;48.736;9.218;2023-01-26T07:26:38;-23137.84;;;-0.96;100.00
29385;BME280;16367;48.736;9.218;2023-01-26T07:28:41;-23135.13;;;-1.04;100.00
29385;BME280;16367;48.736;9.218;2023-01-26T07:30:44;-23135.13;;;-1.04;100.00
29385;BME280;16367;48.736;9.218;2023-01-26T07:32:47;-23132.72;;;-1.12;100.00
29385;BME280;16367;48.736;9.218;2023-01-26T07:34:49;-23131.78;;;-1.15;100.00
29385;BME280;16367;48.736;9.218;2023-01-26T07:36:52;-23132.09;;;-1.14;100.00
29385;BME280;16367;48.736;9.218;2023-01-26T07:38:56;-23138.00;;;-0.95;100.00
29385;BME280;16367;48.736;9.218;2023-01-26T07:41:04;-23140.41;;;-0.88;100.00
29385;BME280;16367;48.736;9.218;2023-01-26T07:43:07;-23138.97;;;-0.92;100.00
29385;BME280;16367;48.736;9.218;2023-01-26T07:45:10;-23140.91;;;-0.86;100.00
29385;BME280;16367;48.736;9.218;2023-01-26T07:47:12;-23134.16;;;-1.07;100.00
29385;BME280;16367;48.736;9.218;2023-01-26T07:49:15;-23137.69;;;-0.96;100.00
29385;BME280;16367;48.736;9.218;2023-01-26T07:51:18;-23139.13;;;-0.92;100.00
29385;BME280;16367;48.736;9.218;2023-01-26T07:53:21;-23137.06;;;-0.98;100.00
29385;BME280;16367;48.736;9.218;2023-01-26T07:55:27;-23140.56;;;-0.87;100.00
29385;BME280;16367;48.736;9.218;2023-01-26T07:57:29;-23144.09;;;-0.76;100.00
29385;BME280;16367;48.736;9.218;2023-01-26T07:59:32;-23140.72;;;-0.87;100.00
29385;BME280;16367;48.736;9.218;2023-01-26T08:01:35;-23143.28;;;-0.79;100.00
29385;BME280;16367;48.736;9.218;2023-01-26T08:03:38;-23141.38;;;-0.85;100.00
29385;BME280;16367;48.736;9.218;2023-01-26T08:05:41;-23139.78;;;-0.90;100.00
29385;BME280;16367;48.736;9.218;2023-01-26T08:07:44;-23142.00;;;-0.83;100.00
29385;BME280;16367;48.736;9.218;2023-01-26T08:09:47;-23139.13;;;-0.92;100.00
29385;BME280;16367;48.736;9.218;2023-01-26T08:11:51;-23133.69;;;-1.09;100.00
29385;BME280;16367;48.736;9.218;2023-01-26T08:13:54;-23133.84;;;-1.08;100.00
29385;BME280;16367;48.736;9.218;2023-01-26T08:16:00;-23137.53;;;-0.97;100.00
29385;BME280;16367;48.736;9.218;2023-01-26T08:18:03;-23135.78;;;-1.02;100.00
29385;BME280;16367;48.736;9.218;2023-01-26T08:20:07;-23138.97;;;-0.92;100.00
29385;BME280;16367;48.736;9.218;2023-01-26T08:22:11;-23139.78;;;-0.90;100.00
29385;BME280;16367;48.736;9.218;2023-01-26T08:24:14;-23144.88;;;-0.73;100.00
29385;BME280;16367;48.736;9.218;2023-01-26T08:26:18;-23142.34;;;-0.82;100.00
29385;BME280;16367;48.736;9.218;2023-01-26T08:28:22;-23139.94;;;-0.89;100.00
29385;BME280;16367;48.736;9.218;2023-01-26T08:30:25;-23134.66;;;-1.06;100.00
29385;BME280;16367;48.736;9.218;2023-01-26T08:32:28;-23137.06;;;-0.98;100.00
29385;BME280;16367;48.736;9.218;2023-01-26T08:34:31;-23131.78;;;-1.15;100.00
29385;BME280;16367;48.736;9.218;2023-01-26T08:36:34;-23128.56;;;-1.25;100.00
29385;BME280;16367;48.736;9.218;2023-01-26T08:38:37;-23128.25;;;-1.26;100.00
29385;BME280;16367;48.736;9.218;2023-01-26T08:40:40;-23136.56;;;-1.00;100.00
29385;BME280;16367;48.736;9.218;2023-01-26T08:42:43;-23139.28;;;-0.91;100.00
29385;BME280;16367;48.736;9.218;2023-01-26T08:44:47;-23139.44;;;-0.91;100.00
29385;BME280;16367;48.736;9.218;2023-01-26T08:46:50;-23147.44;;;-0.65;100.00
29385;BME280;16367;48.736;9.218;2023-01-26T08:48:53;-23137.06;;;-0.98;100.00
29385;BME280;16367;48.736;9.218;2023-01-26T08:50:57;-23141.69;;;-0.84;100.00
29385;BME280;16367;48.736;9.218;2023-01-26T08:53:00;-23144.88;;;-0.73;100.00
29385;BME280;16367;48.736;9.218;2023-01-26T08:55:03;-23148.56;;;-0.62;100.00
29385;BME280;16367;48.736;9.218;2023-01-26T08:57:06;-23151.91;;;-0.51;100.00
29385;BME280;16367;48.736;9.218;2023-01-26T08:59:09;-23141.69;;;-0.84;100.00
29385;BME280;16367;48.736;9.218;2023-01-26T09:01:15;-23139.94;;;-0.89;100.00
29385;BME280;16367;48.736;9.218;2023-01-26T09:03:18;-23134.97;;;-1.05;100.00
29385;BME280;16367;48.736;9.218;2023-01-26T09:05:21;-23145.22;;;-0.72;100.00
29385;BME280;16367;48.736;9.218;2023-01-26T09:07:24;-23141.06;;;-0.86;100.00
29385;BME280;16367;48.736;9.218;2023-01-26T09:09:27;-23142.81;;;-0.80;100.00
29385;BME280;16367;48.736;9.218;2023-01-26T09:11:29;-23141.53;;;-0.84;100.00
29385;BME280;16367;48.736;9.218;2023-01-26T09:13:32;-23141.22;;;-0.85;100.00
29385;BME280;16367;48.736;9.218;2023-01-26T09:15:37;-23138.97;;;-0.92;100.00
29385;BME280;16367;48.736;9.218;2023-01-26T09:17:41;-23142.00;;;-0.83;100.00
29385;BME280;16367;48.736;9.218;2023-01-26T09:19:44;-23148.25;;;-0.63;100.00
29385;BME280;16367;48.736;9.218;2023-01-26T09:21:51;-23152.88;;;-0.48;100.00
29385;BME280;16367;48.736;9.218;2023-01-26T09:23:54;-23151.59;;;-0.52;100.00
29385;BME280;16367;48.736;9.218;2023-01-26T09:25:58;-23141.69;;;-0.84;100.00
29385;BME280;16367;48.736;9.218;2023-01-26T09:28:01;-23137.53;;;-0.97;100.00
29385;BME280;16367;48.736;9.218;2023-01-26T09:30:07;-23142.66;;;-0.81;100.00
29385;BME280;16367;48.736;9.218;2023-01-26T09:32:10;-23143.44;;;-0.78;100.00
29385;BME280;16367;48.736;9.218;2023-01-26T09:34:14;-23146.31;;;-0.69;100.00
29385;BME280;16367;48.736;9.218;2023-01-26T09:36:17;-23143.13;;;-0.79;100.00
29385;BME280;16367;48.736;9.218;2023-01-26T09:38:20;-23142.97;;;-0.80;100.00
29385;BME280;16367;48.736;9.218;2023-01-26T09:40:29;-23133.38;;;-1.10;100.00
29385;BME280;16367;48.736;9.218;2023-01-26T09:42:45;-23137.53;;;-0.97;100.00
29385;BME280;16367;48.736;9.218;2023-01-26T09:45:01;-23135.28;;;-1.04;100.00
29385;BME280;16367;48.736;9.218;2023-01-26T09:47:13;-23148.41;;;-0.62;100.00
29385;BME280;16367;48.736;9.218;2023-01-26T09:49:23;-23146.50;;;-0.68;100.00
29385;BME280;16367;48.736;9.218;2023-01-26T09:51:31;-23146.97;;;-0.67;100.00
29385;BME280;16367;48.736;9.218;2023-01-26T09:53:40;-23145.84;;;-0.70;100.00
29385;BME280;16367;48.736;9.218;2023-01-26T09:55:47;-23156.88;;;-0.36;100.00
29385;BME280;16367;48.736;9.218;2023-01-26T09:57:53;-23149.03;;;-0.60;100.00
29385;BME280;16367;48.736;9.218;2023-01-26T10:00:00;-23154.81;;;-0.42;100.00
29385;BME280;16367;48.736;9.218;2023-01-26T10:02:18;-23158.47;;;-0.31;100.00
29385;BME280;16367;48.736;9.218;2023-01-26T10:04:29;-23156.72;;;-0.36;100.00
29385;BME280;16367;48.736;9.218;2023-01-26T10:06:35;-23156.72;;;-0.36;100.00
29385;BME280;16367;48.736;9.218;2023-01-26T10:08:39;-23144.25;;;-0.76;100.00
29385;BME280;16367;48.736;9.218;2023-01-26T10:10:45;-23152.41;;;-0.50;100.00
29385;BME280;16367;48.736;9.218;2023-01-26T10:12:49;-23151.75;;;-0.52;100.00
29385;BME280;16367;48.736;9.218;2023-01-26T10:14:57;-23158.31;;;-0.31;100.00
29385;BME280;16367;48.736;9.218;2023-01-26T10:17:02;-23154.63;;;-0.43;100.00
29385;BME280;16367;48.736;9.218;2023-01-26T10:19:12;-23146.16;;;-0.69;100.00
29385;BME280;16367;48.736;9.218;2023-01-26T10:21:20;-23143.13;;;-0.79;100.00
29385;BME280;16367;48.736;9.218;2023-01-26T10:23:27;-23145.22;;;-0.72;100.00
29385;BME280;16367;48.736;9.218;2023-01-26T10:25:33;-23147.59;;;-0.65;100.00
29385;BME280;16367;48.736;9.218;2023-01-26T10:27:36;-23149.38;;;-0.59;100.00
29385;BME280;16367;48.736;9.218;2023-01-26T10:29:39;-23140.41;;;-0.88;100.00
29385;BME280;16367;48.736;9.218;2023-01-26T10:31:43;-23147.13;;;-0.66;100.00
29385;BME280;16367;48.736;9.218;2023-01-26T10:33:49;-23147.44;;;-0.65;100.00
29385;BME280;16367;48.736;9.218;2023-01-26T10:35:53;-23140.09;;;-0.89;100.00
29385;BME280;16367;48.736;9.218;2023-01-26T10:37:57;-23148.72;;;-0.61;100.00
29385;BME280;16367;48.736;9.218;2023-01-26T10:40:01;-23145.38;;;-0.72;100.00
29385;BME280;16367;48.736;9.218;2023-01-26T10:42:04;-23148.72;;;-0.61;100.00
29385;BME280;16367;48.736;9.218;2023-01-26T10:44:23;-23157.69;;;-0.33;100.00
29385;BME280;16367;48.736;9.218;2023-01-26T10:46:32;-23152.72;;;-0.49;100.00
29385;BME280;16367;48.736;9.218;2023-01-26T10:48:36;-23147.44;;;-0.65;100.00